Flight Track Log - Related Links

Times and Time Zones

All times are in EDT time to prevent confusion due to time zone crossing. See the AVN11 flight status page for this flight to view local times or setup timezone preferences in your user account.

Time Position Orientation Groundspeed Altitude Reporting Facility
EDT Latitude Longitude Course Direction KTS MPH feet Rate Location/Type
Sat 05:37:42 AM -33.9422 151.1701 88° East 94 108  Level FlightAware ADS-B (YRAY)
Sat 05:38:02 AM -33.9385 151.1860 74° East 165 190 200 1,350 Climbing FlightAware ADS-B (YRAY)
Sat 05:38:22 AM -33.9342 151.2044 74° East 182 209 900 2,000 Climbing FlightAware ADS-B (YRAY)
Sat 05:38:41 AM -33.9310 151.2245 79° East 199 229 1,500 1,692 Climbing FlightAware ADS-B
Sat 05:39:01 AM -33.9282 151.2464 81° East 212 244 2,000 1,355 Climbing FlightAware ADS-B
Sat 05:39:12 AM -33.9265 151.2609 82° East 230 265 2,200 1,742 Climbing FlightAware ADS-B (YRAY)
Sat 05:39:32 AM -33.9238 151.2867 83° East 246 283 2,900 2,429 Climbing FlightAware ADS-B
Sat 05:39:54 AM -33.9209 151.3127 82° East 253 291 3,900 1,950 Climbing FlightAware ADS-B
Sat 05:40:12 AM -33.9174 151.3432 82° East 252 290 4,200 1,024 Climbing FlightAware ADS-B
Sat 05:40:35 AM -33.9142 151.3729 83° East 249 287 4,600 1,050 Climbing FlightAware ADS-B
Sat 05:40:52 AM -33.9115 151.3991 83° East 271 312 4,900 1,200 Climbing FlightAware ADS-B (YRAY)
Sat 05:41:10 AM -33.9087 151.4271 83° East 302 348 5,300 1,116 Climbing FlightAware ADS-B
Sat 05:41:35 AM -33.9053 151.4618 83° East 332 382 5,700 1,737 Climbing FlightAware ADS-B
Sat 05:41:48 AM -33.9031 151.4950 85° East 345 397 6,400 2,625 Climbing FlightAware ADS-B
Sat 05:42:07 AM -33.9034 151.5327 90° East 354 407 7,100 2,526 Climbing FlightAware ADS-B
Sat 05:42:26 AM -33.9035 151.5596 90° East 356 410 8,000 2,651 Climbing FlightAware ADS-B
Sat 05:42:50 AM -33.9038 151.6181 90° East 368 423 9,000 2,512 Climbing FlightAware ADS-B
Sat 05:43:09 AM -33.9040 151.6568 90° East 376 433 9,800 2,327 Climbing FlightAware ADS-B
Sat 05:43:39 AM -33.9045 151.7142 91° East 392 451 10,900 2,571 Climbing FlightAware ADS-B
Sat 05:44:26 AM -33.9053 151.8186 91° East 403 464 13,100 2,667 Climbing FlightAware ADS-B
Sat 05:45:00 AM -33.9060 151.9020 91° East 410 472 14,500 2,609 Climbing FlightAware ADS-B
Sat 05:45:12 AM -33.9058 151.9317 90° East 412 474 15,100 2,426 Climbing FlightAware ADS-B
Sat 05:45:47 AM -33.9061 152.0109 90° East 419 482 16,400 2,364 Climbing FlightAware ADS-B
Sat 05:46:18 AM -33.9062 152.0847 90° East 412 474 17,700 2,233 Climbing Aus ATC (RADAR)
Sat 05:46:30 AM -33.9020 152.1100 90° East 425 489 18,000 2,571 Climbing FlightAware ADS-B
Sat 05:46:32 AM -33.9009 152.1123 60° Northeast 425 489 18,300 2,471 Climbing FlightAware ADS-B
Sat 05:46:47 AM -33.8856 152.1457 61° Northeast 421 484 18,700 1,837 Climbing FlightAware ADS-B
Sat 05:47:21 AM -33.8393 152.2053 47° Northeast 429 494 19,800 1,662 Climbing FlightAware ADS-B
Sat 05:47:52 AM -33.7973 152.2601 47° Northeast 441 507 20,500 1,562 Climbing FlightAware ADS-B
Sat 05:48:34 AM -33.7383 152.3372 47° Northeast 454 522 21,700 2,100 Climbing FlightAware ADS-B
Sat 05:49:12 AM -33.6860 152.4050 47° Northeast 440 506 23,300 2,154 Climbing FlightAware ADS-B
Sat 05:49:52 AM -33.6300 152.4780 47° Northeast 451 519 24,500 1,760 Climbing FlightAware ADS-B
Sat 05:50:27 AM -33.5790 152.5430 47° Northeast 450 518 25,500 1,457 Climbing FlightAware ADS-B
Sat 05:51:02 AM -33.5290 152.6060 46° Northeast 458 527 26,200 789 Climbing FlightAware ADS-B
Sat 05:51:43 AM -33.4649 152.6875 46° Northeast 468 539 26,500 439 Climbing Aus ATC (RADAR)
Sat 05:51:43 AM -33.4720 152.6790 46° Northeast 479 551 26,500 857 Level FlightAware ADS-B
Sat 05:52:18 AM -33.4120 152.7550 47° Northeast 497 572 27,000 943 Climbing FlightAware ADS-B
Sat 05:52:53 AM -33.3590 152.8220 47° Northeast 499 574 27,600 1,286 Climbing FlightAware ADS-B
Sat 05:53:28 AM -33.2990 152.8980 47° Northeast 498 573 28,500 1,971 Climbing FlightAware ADS-B
Sat 05:54:03 AM -33.2434 152.9685 47° Northeast 490 564 29,900 2,229 Climbing Aus ATC (RADAR)
Sat 05:54:03 AM -33.2450 152.9660 47° Northeast 490 564 29,800 1,714 Descending FlightAware ADS-B
Sat 05:54:38 AM -33.1910 153.0340 47° Northeast 477 549 30,900 1,125 Climbing FlightAware ADS-B
Sat 05:55:23 AM -33.1210 153.1220 46° Northeast 496 571 31,300 480 Climbing FlightAware ADS-B
Sat 05:55:53 AM -33.0720 153.1840 47° Northeast 509 586 31,500 738 Climbing FlightAware ADS-B
Sat 05:56:28 AM -33.0150 153.2550 46° Northeast 504 580 32,100 1,029 Climbing FlightAware ADS-B
Sat 05:57:03 AM -32.9600 153.3250 47° Northeast 511 588 32,700 971 Climbing FlightAware ADS-B
Sat 05:57:36 AM -32.9030 153.3962 47° Northeast 512 589 33,200 900 Climbing Aus ATC (RADAR)
Sat 05:57:43 AM -32.8950 153.4060 47° Northeast 514 592 33,300 857 Climbing FlightAware ADS-B
Sat 05:58:18 AM -32.8360 153.4790 46° Northeast 512 589 33,800 806 Climbing FlightAware ADS-B
Sat 05:58:50 AM -32.7870 153.5400 46° Northeast 518 596 34,200 870 Climbing FlightAware ADS-B
Sat 05:59:27 AM -32.7210 153.6220 46° Northeast 514 592 34,800 716 Climbing FlightAware ADS-B
Sat 05:59:57 AM -32.6720 153.6820 46° Northeast 514 592 35,000 257 Climbing FlightAware ADS-B
Sat 06:00:37 AM -32.6130 153.7550 46° Northeast 513 590 35,100 545 Climbing FlightAware ADS-B
Sat 06:00:41 AM -32.5967 153.7758 46° Northeast 518 596 35,400 1,029 Climbing Aus ATC (RADAR)
Sat 06:01:12 AM -32.5480 153.8360 46° Northeast 510 587 35,700 455 Climbing FlightAware ADS-B
Sat 06:01:47 AM -32.4890 153.9070 45° Northeast 515 593 35,900 269 Climbing FlightAware ADS-B
Sat 06:02:19 AM -32.4370 153.9710 46° Northeast 525 604 36,000 87 Climbing FlightAware ADS-B
Sat 06:02:56 AM -32.3740 154.0480 46° Northeast 524 603 36,000  Level FlightAware ADS-B
Sat 06:03:31 AM -32.3170 154.1190 46° Northeast 520 598 36,000  Level FlightAware ADS-B
Sat 06:04:08 AM -32.2540 154.1950 46° Northeast 517 595 36,000  Level FlightAware ADS-B
Sat 06:04:41 AM -32.1990 154.2620 46° Northeast 516 594 36,000  Level FlightAware ADS-B
Sat 06:05:13 AM -32.1570 154.3110 45° Northeast 516 594 36,000 91 Level FlightAware ADS-B
Sat 06:05:47 AM -32.0864 154.3986 45° Northeast 502 578 36,100  Climbing Aus ATC (RADAR)
Sat 06:05:49 AM -32.0870 154.3980 45° Northeast 514 592 36,000 -158 Descending FlightAware ADS-B
Sat 06:06:25 AM -32.0270 154.4710 46° Northeast 513 590 36,000  Level FlightAware ADS-B
Sat 06:07:10 AM -31.9680 154.5430 46° Northeast 513 590 36,000  Level FlightAware ADS-B
Sat 06:07:44 AM -31.8970 154.6260 46° Northeast 512 589 36,000 167 Level FlightAware ADS-B
Sat 06:07:46 AM -31.8875 154.6381 46° Northeast 498 573 36,100  Climbing Aus ATC (RADAR)
Sat 06:08:15 AM -31.8460 154.6890 46° Northeast 512 589 36,000  Descending FlightAware ADS-B
Sat 06:08:20 AM -31.8314 154.7057 46° Northeast 512 589 36,100  Climbing Aus ATC (RADAR)
Sat 06:08:53 AM -31.7850 154.7610 45° Northeast 512 589 36,000 -91 Descending FlightAware ADS-B
Sat 06:09:26 AM -31.7290 154.8290 46° Northeast 512 589 36,000  Level FlightAware ADS-B
Sat 06:09:56 AM -31.6726 154.8955 46° Northeast 495 570 36,000  Level Aus ATC (RADAR)
Sat 06:10:15 AM -31.6590 154.9120 46° Northeast 512 589 36,000  Level FlightAware ADS-B
Sat 06:10:53 AM -31.5900 154.9950 46° Northeast 511 588 36,000  Level FlightAware ADS-B
Sat 06:11:25 AM -31.5470 155.0460 45° Northeast 511 588 36,000  Level FlightAware ADS-B
Sat 06:11:56 AM -31.4746 155.1321 45° Northeast 491 565 36,000  Level Aus ATC (RADAR)
Sat 06:11:56 AM -31.4790 155.1280 45° Northeast 509 586 36,000  Level FlightAware ADS-B
Sat 06:12:32 AM -31.4200 155.1970 45° Northeast 509 586 36,000  Level FlightAware ADS-B
Sat 06:13:06 AM -31.3588 155.2697 45° Northeast 493 567 36,000  Level Aus ATC (RADAR)
Sat 06:13:09 AM -31.3670 155.2590 45° Northeast 509 586 36,000 171 Level FlightAware ADS-B
Sat 06:13:41 AM -31.3003 155.3380 45° Northeast 495 570 36,100  Climbing Aus ATC (RADAR)
Sat 06:13:45 AM -31.3160 155.3190 45° Northeast 509 586 36,000 -150 Descending FlightAware ADS-B
Sat 06:14:21 AM -31.2650 155.3790 45° Northeast 509 586 36,000 85 Level FlightAware ADS-B
Sat 06:14:56 AM -31.1771 155.4838 45° Northeast 490 564 36,100  Climbing Aus ATC (RADAR)
Sat 06:14:57 AM -31.2140 155.4380 45° Northeast 509 586 36,000  Descending FlightAware ADS-B
Sat 06:15:29 AM -31.1206 155.5497 45° Northeast 507 583 36,100  Climbing Aus ATC (RADAR)
Sat 06:15:41 AM -31.1140 155.5570 45° Northeast 509 586 36,000 -125 Descending FlightAware ADS-B
Sat 06:16:17 AM -31.0640 155.6170 46° Northeast 509 586 36,000  Level FlightAware ADS-B
Sat 06:16:51 AM -30.9860 155.7071 46° Northeast 492 566 36,000  Level Aus ATC (RADAR)
Sat 06:16:53 AM -31.0130 155.6760 46° Northeast 509 586 36,000  Level FlightAware ADS-B
Sat 06:17:29 AM -30.9620 155.7360 45° Northeast 509 586 36,000 91 Level FlightAware ADS-B
Sat 06:17:59 AM -30.8708 155.8421 45° Northeast 511 588 36,100  Climbing Aus ATC (RADAR)
Sat 06:18:05 AM -30.9110 155.7950 45° Northeast 509 586 36,000 -143 Descending FlightAware ADS-B
Sat 06:18:41 AM -30.8600 155.8540 45° Northeast 509 586 36,000 67 Level FlightAware ADS-B
Sat 06:19:34 AM -30.7186 156.0373 45° Northeast 515 593 36,100  Climbing Aus ATC (RADAR)
Sat 06:19:49 AM -30.6949 156.0685 48° Northeast 516 594 36,000  Descending Aus ATC (RADAR)
Sat 06:20:24 AM -30.6395 156.1416 49° Northeast 516 594 36,100 71 Climbing Aus ATC (RADAR)
Sat 06:21:14 AM -30.5606 156.2458 49° Northeast 516 594 36,100  Level Aus ATC (RADAR)
Sat 06:21:24 AM -30.5448 156.2666 49° Northeast 515 593 36,100  Level Aus ATC (RADAR)
Sat 06:21:59 AM -30.4902 156.3389 49° Northeast 512 589 36,100 -71 Level Aus ATC (RADAR)
Sat 06:22:48 AM -30.4117 156.4416 49° Northeast 510 587 36,000 -87 Descending Aus ATC (RADAR)
Sat 06:23:08 AM -30.3800 156.4828 48° Northeast 511 588 36,000  Level Aus ATC (RADAR)
Sat 06:23:43 AM -30.3245 156.5553 48° Northeast 513 590 36,000  Level Aus ATC (RADAR)
Sat 06:24:38 AM -30.2373 156.6693 48° Northeast 514 592 36,000  Level Aus ATC (RADAR)
Sat 06:24:58 AM -30.2055 156.7106 48° Northeast 515 593 36,000  Level Aus ATC (RADAR)
Sat 06:25:33 AM -30.1499 156.7831 48° Northeast 515 593 36,000  Level Aus ATC (RADAR)
Sat 06:26:28 AM -30.0633 156.8963 49° Northeast 512 589 36,000  Level Aus ATC (RADAR)
Sat 06:26:58 AM -30.0153 156.9581 48° Northeast 513 590 36,000  Level Aus ATC (RADAR)
Sat 06:27:53 AM -29.9288 157.0705 48° Northeast 509 586 36,000  Level Aus ATC (RADAR)
Sat 06:28:03 AM -29.9136 157.0907 49° Northeast 506 582 36,000  Level Aus ATC (RADAR)
Sat 06:28:10 AM -29.9020 157.1030 49° Northeast 513 590 36,000  Level FlightAware ADS-B
Sat 06:28:57 AM -29.8370 157.1880 49° Northeast 513 590 36,000  Level FlightAware ADS-B
Sat 06:29:34 AM -29.7880 157.2530 49° Northeast 513 590 36,000  Level FlightAware ADS-B
Sat 06:30:11 AM -29.7390 157.3180 49° Northeast 513 590 36,000  Level FlightAware ADS-B
Sat 06:30:47 AM -29.6920 157.3810 49° Northeast 513 590 36,000  Level FlightAware ADS-B
Sat 06:31:18 AM -29.5994 157.4920 49° Northeast 520 598 36,000  Level Aus ATC (RADAR)
Sat 06:31:23 AM -29.6440 157.4440 49° Northeast 513 590 36,000  Level FlightAware ADS-B
Sat 06:32:01 AM -29.5330 157.5770 49° Northeast 514 592 36,000  Level FlightAware ADS-B
Sat 06:32:03 AM -29.5279 157.5837 49° Northeast 515 593 36,000  Level Aus ATC (RADAR)
Sat 06:32:35 AM -29.4950 157.6250 48° Northeast 514 592 36,000  Level FlightAware ADS-B
Sat 06:33:10 AM -29.4370 157.6970 47° Northeast 515 593 36,000  Level FlightAware ADS-B
Sat 06:33:47 AM -29.3597 157.7977 47° Northeast 513 590 36,000  Level Aus ATC (RADAR)
Sat 06:33:48 AM -29.3850 157.7630 47° Northeast 515 593 36,000  Level FlightAware ADS-B
Sat 06:34:25 AM -29.3350 157.8270 48° Northeast 515 593 36,000  Level FlightAware ADS-B
Sat 06:35:01 AM -29.2870 157.8890 48° Northeast 515 593 36,000  Level FlightAware ADS-B
Sat 06:35:37 AM -29.2380 157.9510 48° Northeast 515 593 36,000  Level FlightAware ADS-B
Sat 06:36:13 AM -29.1890 158.0130 48° Northeast 515 593 36,000  Level FlightAware ADS-B
Sat 06:36:49 AM -29.1400 158.0750 48° Northeast 515 593 36,000  Level FlightAware ADS-B
Sat 06:37:27 AM -29.0890 158.1410 49° Northeast 515 593 36,000  Level FlightAware ADS-B
Sat 06:38:03 AM -29.0400 158.2030 48° Northeast 515 593 36,000  Level FlightAware ADS-B
Sat 06:38:39 AM -28.9910 158.2650 48° Northeast 515 593 36,000  Level FlightAware ADS-B
Sat 06:39:15 AM -28.9420 158.3270 48° Northeast 515 593 36,000  Level FlightAware ADS-B
Sat 06:39:51 AM -28.8940 158.3890 49° Northeast 515 593 36,000  Level FlightAware ADS-B
Sat 06:40:27 AM -28.8450 158.4500 47° Northeast 515 593 36,000  Level FlightAware ADS-B
Sat 06:41:03 AM -28.7960 158.5120 48° Northeast 515 593 36,000  Level FlightAware ADS-B
Sat 06:41:40 AM -28.7460 158.5760 48° Northeast 515 593 36,000  Level FlightAware ADS-B
Sat 06:42:07 AM -28.5467 158.8110 225° Southwest 35,000  Descending Aus ATC (Calculated)
Sat 06:42:16 AM -28.6970 158.6380 48° Northeast 515 593 36,000 1,333 Climbing FlightAware ADS-B
Sat 06:42:52 AM -28.6480 158.6990 48° Northeast 515 593 36,000 20 Level FlightAware ADS-B
Sat 06:45:00 AM -28.4320 158.9119 41° Northeast  Level Estimated
Sat 06:45:12 AM -28.2727 159.1479 47° Northeast 37,000  Level Aus ATC (Calculated)
Sat 06:47:00 AM -28.0893 159.3254 41° Northeast  Level Estimated
Sat 06:48:00 AM -27.9874 159.4237 40° Northeast  Level Estimated
Sat 06:49:00 AM -27.8853 159.5219 40° Northeast  Level Estimated
Sat 06:49:41 AM -27.8162 159.7031 47° Northeast 37,000  Level Aus ATC (Calculated)
Sat 06:50:07 AM -27.7725 159.7559 47° Northeast 37,000  Level Aus ATC (Calculated)
Sat 06:52:00 AM -27.5788 159.9383 40° Northeast  Level Estimated
Sat 06:52:21 AM -27.5571 160.0151 47° Northeast 37,000  Level Aus ATC (Calculated)
Sat 06:53:00 AM -27.4758 160.0348 40° Northeast  Level Estimated
Sat 06:54:00 AM -27.3856 160.1745 40° Northeast  Level Estimated
Sat 06:54:36 AM -27.3182 160.3006 47° Northeast 37,000  Level Aus ATC (Calculated)
Sat 06:56:00 AM -27.1720 160.4346 39° Northeast  Level Estimated
Sat 06:56:55 AM -27.1012 160.5583 46° Northeast 37,000  Level Aus ATC (Calculated)
Sat 06:57:00 AM -27.0676 160.5302 39° Northeast  Level Estimated
Sat 06:57:36 AM -27.0356 160.6359 46° Northeast 37,000  Level Aus ATC (Calculated)
Sat 06:58:00 AM -26.9876 160.6611 39° Northeast  Level Estimated
Sat 06:58:55 AM -26.9082 160.7861 46° Northeast 37,000  Level Aus ATC (Calculated)
Sat 06:59:00 AM -26.8885 160.7685 39° Northeast  Level Estimated
Sat 07:00:00 AM -26.7942 160.8882 39° Northeast  Level Estimated
Sat 07:01:00 AM -26.6889 160.9822 39° Northeast  Level Estimated
Sat 07:01:00 AM -26.7289 160.9967 46° Northeast 37,000  Level Aus ATC (Calculated)
Sat 07:02:00 AM -26.6233 161.0903 38° Northeast  Level Estimated
Sat 07:03:00 AM -26.5175 161.1836 38° Northeast  Level Estimated
Sat 07:03:00 AM -26.5119 161.2504 46° Northeast 37,000  Level Aus ATC (Calculated)
Sat 07:04:00 AM -26.4057 161.3430 38° Northeast  Level Estimated
Sat 07:05:00 AM -26.2995 161.4355 38° Northeast  Level Estimated
Sat 07:06:00 AM -26.1932 161.5278 38° Northeast  Level Estimated
Sat 07:07:00 AM -26.0869 161.6199 38° Northeast  Level Estimated
Sat 07:08:00 AM -25.9805 161.7119 38° Northeast  Level Estimated
Sat 07:09:00 AM -25.8740 161.8037 38° Northeast  Level Estimated
Sat 07:10:00 AM -25.7675 161.8953 38° Northeast  Level Estimated
Sat 07:11:00 AM -25.6609 161.9868 38° Northeast  Level Estimated
Sat 07:12:00 AM -25.5543 162.0781 38° Northeast  Level Estimated
Sat 07:13:00 AM -25.4476 162.1692 38° Northeast  Level Estimated
Sat 07:13:00 AM -25.5089 162.4036 46° Northeast 37,000  Level Aus ATC (Calculated)
Sat 07:14:00 AM -25.4003 162.4919 36° Northeast  Level Estimated
Sat 07:15:00 AM -25.2916 162.5800 36° Northeast  Level Estimated
Sat 07:16:00 AM -25.1829 162.6680 36° Northeast  Level Estimated
Sat 07:17:00 AM -25.0742 162.7558 36° Northeast  Level Estimated
Sat 07:18:00 AM -24.9653 162.8434 36° Northeast  Level Estimated
Sat 07:19:00 AM -24.8565 162.9309 36° Northeast  Level Estimated
Sat 07:20:00 AM -24.7476 163.0182 36° Northeast  Level Estimated
Sat 07:21:00 AM -24.6386 163.1054 36° Northeast  Level Estimated
Sat 07:22:00 AM -24.5296 163.1924 36° Northeast  Level Estimated
Sat 07:23:00 AM -24.4205 163.2793 36° Northeast  Level Estimated
Sat 07:24:00 AM -24.3114 163.3661 36° Northeast  Level Estimated
Sat 07:25:00 AM -24.2023 163.4526 36° Northeast  Level Estimated
Sat 07:26:00 AM -24.0931 163.5391 36° Northeast  Level Estimated
Sat 07:27:00 AM -23.9838 163.6254 36° Northeast  Level Estimated
Sat 07:28:00 AM -23.8745 163.7115 36° Northeast  Level Estimated
Sat 07:29:00 AM -23.7652 163.7975 36° Northeast  Level Estimated
Sat 07:30:00 AM -23.6558 163.8834 36° Northeast  Level Estimated
Sat 07:31:00 AM -23.5463 163.9691 36° Northeast  Level Estimated
Sat 07:32:00 AM -23.4368 164.0546 36° Northeast  Level Estimated
Sat 07:32:47 AM -23.5740 164.5440 36° Northeast 516 594 37,000  Level FlightAware ADS-B
Sat 07:33:22 AM -23.5160 164.6070 45° Northeast 516 594 37,000  Level FlightAware ADS-B
Sat 07:34:14 AM -23.4260 164.7050 45° Northeast 516 594 37,000  Level FlightAware ADS-B
Sat 07:34:52 AM -23.3690 164.7650 44° Northeast 516 594 37,000  Level FlightAware ADS-B
Sat 07:35:29 AM -23.3010 164.8400 45° Northeast 516 594 37,000  Level FlightAware ADS-B
Sat 07:36:06 AM -23.2380 164.9070 44° Northeast 516 594 37,000  Level FlightAware ADS-B
Sat 07:36:38 AM -23.1840 164.9650 45° Northeast 516 594 37,000  Level FlightAware ADS-B
Sat 07:37:12 AM -23.1270 165.0260 45° Northeast 516 594 37,000  Level FlightAware ADS-B
Sat 07:37:52 AM -23.0550 165.1020 44° Northeast 516 594 37,000  Level FlightAware ADS-B
Sat 07:38:24 AM -23.0020 165.1600 45° Northeast 515 593 37,000  Level FlightAware ADS-B
Sat 07:39:00 AM -22.9410 165.2250 44° Northeast 514 592 37,000  Level FlightAware ADS-B
Sat 07:39:36 AM -22.8790 165.2900 44° Northeast 514 592 37,000  Level FlightAware ADS-B
Sat 07:40:03 AM -22.8350 165.3370 45° Northeast 514 592 37,000  Level FlightAware ADS-B
Sat 07:40:57 AM -22.7490 165.4280 44° Northeast 515 593 37,000  Level FlightAware ADS-B
Sat 07:41:33 AM -22.6970 165.4830 44° Northeast 515 593 37,000  Level FlightAware ADS-B
Sat 07:42:09 AM -22.6440 165.5370 43° Northeast 515 593 37,000  Level FlightAware ADS-B
Sat 07:42:46 AM -22.5910 165.5940 45° Northeast 515 593 37,000  Level FlightAware ADS-B
Sat 07:43:22 AM -22.5380 165.6490 44° Northeast 515 593 37,000  Level FlightAware ADS-B
Sat 07:43:58 AM -22.4860 165.7030 44° Northeast 515 593 37,000  Level FlightAware ADS-B
Sat 07:44:34 AM -22.4330 165.7580 44° Northeast 515 593 37,000  Level FlightAware ADS-B
Sat 07:45:10 AM -22.3810 165.8130 44° Northeast 515 593 37,000  Level FlightAware ADS-B
Sat 07:45:46 AM -22.3280 165.8680 44° Northeast 515 593 37,000  Level FlightAware ADS-B
Sat 07:46:22 AM -22.2760 165.9230 44° Northeast 515 593 37,000  Level FlightAware ADS-B
Sat 07:46:58 AM -22.1210 166.0910 45° Northeast 518 596 37,000  Level FlightAware ADS-B
Sat 07:47:31 AM -22.0660 166.1490 44° Northeast 516 594 37,000  Level FlightAware ADS-B
Sat 07:48:08 AM -21.9990 166.2090 40° Northeast 501 577 37,000  Level FlightAware ADS-B
Sat 07:48:38 AM -21.9380 166.2440 28° Northeast 483 556 37,000  Level FlightAware ADS-B
Sat 07:49:23 AM -21.8560 166.2830 24° Northeast 484 557 37,000  Level FlightAware ADS-B
Sat 07:49:59 AM -21.7940 166.3130 24° Northeast 484 557 37,000  Level FlightAware ADS-B
Sat 07:50:35 AM -21.7310 166.3430 24° Northeast 484 557 37,000  Level FlightAware ADS-B
Sat 07:51:09 AM -21.6260 166.3940 24° Northeast 487 560 37,000  Level FlightAware ADS-B
Sat 07:51:41 AM -21.5600 166.4250 24° Northeast 486 559 37,000  Level FlightAware ADS-B
Sat 07:52:14 AM -21.4930 166.4570 24° Northeast 484 557 37,000  Level FlightAware ADS-B
Sat 07:52:53 AM -21.4120 166.4960 24° Northeast 486 559 37,000  Level FlightAware ADS-B
Sat 07:53:30 AM -21.3370 166.5310 23° Northeast 485 558 37,000  Level FlightAware ADS-B
Sat 07:54:01 AM -21.2730 166.5620 24° Northeast 484 557 37,000  Level FlightAware ADS-B
Sat 07:54:37 AM -21.2010 166.5960 24° Northeast 484 557 37,000  Level FlightAware ADS-B
Sat 07:55:10 AM -21.1310 166.6290 24° Northeast 485 558 37,000  Level FlightAware ADS-B
Sat 07:55:48 AM -21.0550 166.6650 24° Northeast 486 559 37,000  Level FlightAware ADS-B
Sat 07:56:24 AM -20.9800 166.7000 24° Northeast 487 560 37,000  Level FlightAware ADS-B
Sat 07:57:00 AM -20.9060 166.7360 24° Northeast 487 560 37,000  Level FlightAware ADS-B
Sat 07:57:31 AM -20.8390 166.7670 23° Northeast 487 560 37,000  Level FlightAware ADS-B
Sat 07:58:05 AM -20.7770 166.7960 24° Northeast 487 560 37,000  Level FlightAware ADS-B
Sat 07:58:40 AM -20.7020 166.8320 24° Northeast 482 555 37,000  Level FlightAware ADS-B
Sat 07:59:15 AM -20.6280 166.8670 24° Northeast 479 551 37,000  Level FlightAware ADS-B
Sat 07:59:50 AM -20.5620 166.8970 23° Northeast 479 551 37,000  Level FlightAware ADS-B
Sat 08:00:28 AM -20.4790 166.9370 24° Northeast 477 549 37,000  Level FlightAware ADS-B
Sat 08:01:18 AM -20.3950 166.9760 24° Northeast 477 549 37,000  Level FlightAware ADS-B
Sat 08:01:54 AM -20.3320 167.0040 23° Northeast 477 549 37,000  Level FlightAware ADS-B
Sat 08:02:30 AM -20.2700 167.0320 23° Northeast 477 549 37,000  Level FlightAware ADS-B
Sat 08:03:06 AM -20.2080 167.0600 23° Northeast 477 549 37,000  Level FlightAware ADS-B
Sat 08:03:42 AM -20.1460 167.0880 23° Northeast 477 549 37,000  Level FlightAware ADS-B
Sat 08:04:19 AM -20.0820 167.1170 23° Northeast 477 549 37,000  Level FlightAware ADS-B
Sat 08:04:55 AM -20.0200 167.1450 23° Northeast 477 549 37,000  Level FlightAware ADS-B
Sat 08:05:31 AM -19.9580 167.1730 23° Northeast 477 549 37,000  Level FlightAware ADS-B
Sat 08:06:07 AM -19.8960 167.2010 23° Northeast 477 549 37,000  Level FlightAware ADS-B
Sat 08:06:43 AM -19.8330 167.2290 23° Northeast 477 549 37,000  Level FlightAware ADS-B
Sat 08:07:19 AM -19.7710 167.2570 23° Northeast 477 549 37,000  Level FlightAware ADS-B
Sat 08:07:55 AM -19.7090 167.2850 23° Northeast 477 549 37,000  Level FlightAware ADS-B
Sat 08:08:31 AM -19.6470 167.3130 23° Northeast 477 549 37,000  Level FlightAware ADS-B
Sat 08:09:08 AM -19.5830 167.3420 23° Northeast 477 549 37,000  Level FlightAware ADS-B
Sat 08:09:47 AM -19.5160 167.3720 23° Northeast 477 549 37,000  Level FlightAware ADS-B
Sat 08:10:24 AM -19.4520 167.4010 23° Northeast 477 549 37,000  Level FlightAware ADS-B
Sat 08:13:00 AM -19.1332 167.5547 24° Northeast  Level FlightAware Approximate
Sat 08:14:00 AM -19.0106 167.6137 24° Northeast  Level FlightAware Approximate
Sat 08:15:00 AM -18.8879 167.6726 24° Northeast  Level FlightAware Approximate
Sat 08:16:00 AM -18.7652 167.7314 24° Northeast  Level FlightAware Approximate
Sat 08:17:00 AM -18.6425 167.7901 24° Northeast  Level FlightAware Approximate
Sat 08:18:00 AM -18.5196 167.8485 24° Northeast  Level FlightAware Approximate
Sat 08:19:00 AM -18.3962 167.9056 24° Northeast  Level FlightAware Approximate
Sat 08:20:00 AM -18.2729 167.9627 24° Northeast  Level FlightAware Approximate
Sat 08:21:00 AM -18.1495 168.0196 24° Northeast  Level FlightAware Approximate
Sat 08:22:00 AM -18.0262 168.0765 24° Northeast  Level FlightAware Approximate
Sat 08:23:00 AM -17.9028 168.1334 24° Northeast  Level FlightAware Approximate
Sat 08:24:00 AM -17.7794 168.1901 24° Northeast  Level FlightAware Approximate
Sat 08:25:00 AM -17.6652 168.2502 117° Southeast  Level FlightAware Approximate
Sat 08:26:00 AM -17.6991 168.3198 117° Southeast  Level FlightAware Approximate
Sat 08:27:00 AM -17.6993 168.3198 117° Southeast  Level Estimated
Sat 08:28:00 AM -17.6991 168.3198 117° Southeast  Level FlightAware Approximate
Sat 08:29:00 AM -17.6993 168.3198 117° Southeast  Level Estimated
Sat 08:30:00 AM -17.6991 168.3198 117° Southeast  Level FlightAware Approximate
Sat 08:31:00 AM -17.6993 168.3198 117° Southeast  Level Estimated
Sat 08:32:00 AM -17.6991 168.3198 117° Southeast  Level FlightAware Approximate
Sat 08:33:00 AM -17.6993 168.3198 117° Southeast  Level Estimated
Sat 08:34:00 AM -17.6991 168.3198 117° Southeast  Level FlightAware Approximate
Sat 08:35:00 AM -17.6993 168.3198 117° Southeast  Level Estimated
Sat 08:36:00 AM -17.6991 168.3198 117° Southeast  Level FlightAware Approximate
Sat 08:37:00 AM -17.6993 168.3198 117° Southeast  Level Estimated
Sat 08:38:00 AM -17.6991 168.3198 117° Southeast  Level FlightAware Approximate
Sat 08:39:00 AM -17.6993 168.3198 117° Southeast  Level Estimated
Sat 08:40:00 AM -17.6991 168.3198 117° Southeast  Level FlightAware Approximate
Sat 08:41:00 AM -17.6993 168.3198 117° Southeast  Level Estimated
Sat 08:42:00 AM -17.6991 168.3198 117° Southeast  Level FlightAware Approximate
Sat 08:43:00 AM -17.6993 168.3198 117° Southeast  Level Estimated
Sat 08:44:00 AM -17.6991 168.3198 117° Southeast  Level FlightAware Approximate

Login

Don't have an account? Register now (free) for customized features, flight alerts, and more!